createdAt,value
2023-03-13T00:02:24.779Z,98951.16
2023-03-13T00:05:13.810Z,98968.78
2023-03-13T00:08:02.045Z,98972.47
2023-03-13T00:10:47.721Z,98964.75
2023-03-13T00:13:29.872Z,98965.28
2023-03-13T00:16:24.735Z,98966.28
2023-03-13T00:19:15.654Z,98966.06
2023-03-13T00:22:04.529Z,98960.41
2023-03-13T00:24:54.704Z,98949.28
2023-03-13T00:27:50.556Z,98953.06
2023-03-13T00:30:39.732Z,98966.13
2023-03-13T00:33:28.664Z,98970.91
2023-03-13T00:36:21.647Z,98957.97
2023-03-13T00:39:11.667Z,98968.81
2023-03-13T00:41:53.899Z,98964.56
2023-03-13T00:44:43.862Z,98969.53
2023-03-13T00:47:25.955Z,98970.50
2023-03-13T00:50:14.619Z,98969.06
2023-03-13T00:52:56.929Z,98974.09
2023-03-13T00:55:45.963Z,98976.00
2023-03-13T00:58:37.020Z,98968.25
2023-03-13T01:01:25.695Z,98969.94
2023-03-13T01:04:18.736Z,98969.72
2023-03-13T01:07:00.930Z,98968.31
2023-03-13T01:09:49.688Z,98973.88
2023-03-13T01:12:31.933Z,98971.69
2023-03-13T01:15:20.663Z,98980.63
2023-03-13T01:18:03.042Z,98985.66
2023-03-13T01:20:51.711Z,98984.28
2023-03-13T01:23:36.939Z,98978.59
2023-03-13T01:26:25.631Z,98982.97
2023-03-13T01:29:20.655Z,98986.50
2023-03-13T01:32:09.697Z,98977.38
2023-03-13T01:34:58.632Z,98985.16
2023-03-13T01:37:47.649Z,98982.25
2023-03-13T01:40:29.983Z,98983.66
2023-03-13T01:43:39.705Z,98983.25
2023-03-13T01:46:32.675Z,98993.66
2023-03-13T01:49:37.732Z,98989.66
2023-03-13T01:52:36.991Z,98998.53
2023-03-13T01:55:45.695Z,98995.72
2023-03-13T01:58:28.983Z,99007.97
2023-03-13T02:01:17.710Z,99004.78
2023-03-13T02:04:00.047Z,99013.34
2023-03-13T02:06:51.744Z,99016.81
2023-03-13T02:09:43.704Z,99018.19
2023-03-13T02:12:44.997Z,99021.44
2023-03-13T02:15:30.138Z,99034.22
2023-03-13T02:18:20.615Z,99036.03
2023-03-13T02:21:16.678Z,99037.13
2023-03-13T02:24:28.039Z,99037.38
2023-03-13T02:27:10.971Z,99037.63
2023-03-13T02:30:01.012Z,99036.81
2023-03-13T02:32:43.707Z,99042.19
2023-03-13T02:35:26.168Z,99040.56
2023-03-13T02:38:20.745Z,99049.50
2023-03-13T02:41:04.187Z,99051.31
2023-03-13T02:43:53.724Z,99056.59
2023-03-13T02:46:56.073Z,99063.00
2023-03-13T02:49:38.706Z,99067.59
2023-03-13T02:52:27.627Z,99076.28
2023-03-13T02:55:19.417Z,99076.75
2023-03-13T02:58:08.778Z,99080.19
2023-03-13T03:00:50.943Z,99082.66
2023-03-13T03:03:39.764Z,99088.88
2023-03-13T03:06:28.641Z,99085.63
2023-03-13T03:09:20.733Z,99096.56
2023-03-13T03:12:14.739Z,99099.97
2023-03-13T03:14:56.988Z,99098.13
2023-03-13T03:17:47.641Z,99106.19
2023-03-13T03:20:37.773Z,99101.91
2023-03-13T03:23:21.013Z,99117.69
2023-03-13T03:26:10.628Z,99123.59
2023-03-13T03:28:59.749Z,99120.88
2023-03-13T03:31:41.920Z,99124.66
2023-03-13T03:34:30.893Z,99123.03
2023-03-13T03:37:18.911Z,99130.34
2023-03-13T03:40:01.769Z,99137.41
2023-03-13T03:42:49.933Z,99135.47
2023-03-13T03:45:32.720Z,99137.41
2023-03-13T03:48:14.914Z,99136.75
2023-03-13T03:51:03.715Z,99142.16
2023-03-13T03:53:57.017Z,99136.34
2023-03-13T03:56:41.677Z,99132.56
2023-03-13T03:59:29.968Z,99138.56
2023-03-13T04:02:15.721Z,99139.41
2023-03-13T04:05:04.681Z,99144.72
2023-03-13T04:07:55.652Z,99143.63
2023-03-13T04:10:45.693Z,99141.31
2023-03-13T04:13:30.932Z,99148.66
2023-03-13T04:16:19.740Z,99146.41
2023-03-13T04:19:03.991Z,99148.63
2023-03-13T04:21:52.689Z,99154.88
2023-03-13T04:24:35.023Z,99150.00
2023-03-13T04:27:24.742Z,99150.47
2023-03-13T04:30:20.624Z,99152.72
2023-03-13T04:33:29.347Z,99161.56
2023-03-13T04:36:30.906Z,99161.19
2023-03-13T04:39:27.061Z,99155.94
2023-03-13T04:42:33.735Z,99154.91
2023-03-13T04:45:40.847Z,99150.34
2023-03-13T04:48:41.501Z,99149.03
2023-03-13T04:51:47.278Z,99149.03
2023-03-13T04:54:54.658Z,99145.56
2023-03-13T04:58:00.391Z,99147.91
2023-03-13T05:01:00.792Z,99147.09
2023-03-13T05:04:06.109Z,99149.78
2023-03-13T05:07:12.709Z,99144.34
2023-03-13T05:10:24.631Z,99143.28
2023-03-13T05:13:39.731Z,99144.00
2023-03-13T05:16:41.907Z,99146.47
2023-03-13T05:20:02.738Z,99147.53
2023-03-13T05:23:07.892Z,99138.91
2023-03-13T05:26:31.756Z,99139.66
2023-03-13T05:29:26.524Z,99137.13
2023-03-13T05:32:21.702Z,99132.19
2023-03-13T05:35:24.092Z,99132.09
2023-03-13T05:38:28.099Z,99134.19
2023-03-13T05:41:33.064Z,99125.50
2023-03-13T05:44:40.654Z,99124.66
2023-03-13T05:47:36.122Z,99126.41
2023-03-13T05:50:48.684Z,99118.53
2023-03-13T05:53:57.681Z,99119.03
2023-03-13T05:56:58.834Z,99116.25
2023-03-13T06:00:05.762Z,99110.63
2023-03-13T06:03:06.959Z,99109.88
2023-03-13T06:05:57.660Z,99108.03
2023-03-13T06:08:59.922Z,99106.03
2023-03-13T06:11:50.782Z,99100.44
2023-03-13T06:14:32.841Z,99098.97
2023-03-13T06:17:42.636Z,99097.44
2023-03-13T06:20:31.019Z,99091.88
2023-03-13T06:23:14.000Z,99077.44
2023-03-13T06:26:02.965Z,99077.66
2023-03-13T06:28:57.701Z,99080.31
2023-03-13T06:31:47.144Z,99069.34
2023-03-13T06:34:30.865Z,99064.16
2023-03-13T06:37:18.987Z,99074.28
2023-03-13T06:40:01.639Z,99058.91
2023-03-13T06:42:51.020Z,99065.69
2023-03-13T06:45:33.684Z,99061.84
2023-03-13T06:48:16.028Z,99055.31
2023-03-13T06:51:05.632Z,99050.09
2023-03-13T06:53:55.669Z,99041.41
2023-03-13T06:56:44.728Z,99029.41
2023-03-13T06:59:26.928Z,99031.22
2023-03-13T07:02:15.644Z,99028.16
2023-03-13T07:05:06.896Z,99011.88
2023-03-13T07:07:49.653Z,99000.94
2023-03-13T07:10:41.126Z,99007.81
2023-03-13T07:13:23.633Z,99003.69
2023-03-13T07:16:52.077Z,99005.22
2023-03-13T07:19:41.733Z,98989.88
2023-03-13T07:22:24.305Z,98983.22
2023-03-13T07:25:13.750Z,98975.97
2023-03-13T07:27:59.010Z,98980.41
2023-03-13T07:30:47.762Z,98976.06
2023-03-13T07:33:29.942Z,98965.91
2023-03-13T07:36:20.753Z,98959.50
2023-03-13T07:39:02.946Z,98959.66
2023-03-13T07:41:51.743Z,98956.91
2023-03-13T07:44:33.968Z,98953.53
2023-03-13T07:47:22.756Z,98949.03
2023-03-13T07:50:05.430Z,98948.06
2023-03-13T07:52:54.682Z,98946.78
2023-03-13T07:55:36.964Z,98941.13
2023-03-13T07:58:25.661Z,98938.09
2023-03-13T08:01:09.000Z,98916.81
2023-03-13T08:04:02.096Z,98920.50
2023-03-13T08:06:43.987Z,98909.78
2023-03-13T08:09:32.768Z,98912.31
2023-03-13T08:12:15.936Z,98892.19
2023-03-13T08:15:04.663Z,98891.75
2023-03-13T08:17:59.534Z,98893.50
2023-03-13T08:20:48.671Z,98883.69
2023-03-13T08:23:31.028Z,98879.50
2023-03-13T08:26:25.743Z,98874.50
2023-03-13T08:29:11.033Z,98867.28
2023-03-13T08:32:00.699Z,98859.06
2023-03-13T08:34:42.881Z,98857.09
2023-03-13T08:37:31.748Z,98851.91
2023-03-13T08:40:15.120Z,98850.66
2023-03-13T08:43:03.693Z,98848.78
2023-03-13T08:45:46.008Z,98839.88
2023-03-13T08:48:34.674Z,98833.97
2023-03-13T08:51:18.934Z,98825.13
2023-03-13T08:54:07.790Z,98821.69
2023-03-13T08:56:50.116Z,98819.13
2023-03-13T08:59:38.669Z,98816.78
2023-03-13T09:02:28.701Z,98806.41
2023-03-13T09:05:17.913Z,98815.91
2023-03-13T09:08:01.614Z,98805.13
2023-03-13T09:10:49.935Z,98796.75
2023-03-13T09:13:35.908Z,98800.13
2023-03-13T09:16:27.936Z,98793.56
2023-03-13T09:19:16.707Z,98789.19
2023-03-13T09:21:59.004Z,98783.88
2023-03-13T09:24:49.078Z,98772.63
2023-03-13T09:27:31.017Z,98772.16
2023-03-13T09:30:19.638Z,98767.47
2023-03-13T09:33:02.120Z,98769.41
2023-03-13T09:35:51.704Z,98764.59
2023-03-13T09:38:36.220Z,98752.56
2023-03-13T09:41:48.937Z,98754.19
2023-03-13T09:44:45.553Z,98752.56
2023-03-13T09:47:49.723Z,98745.97
2023-03-13T09:50:41.984Z,98750.63
2023-03-13T09:54:04.498Z,98733.56
2023-03-13T09:57:04.941Z,98734.38
2023-03-13T10:00:08.824Z,98734.84
2023-03-13T10:03:20.983Z,98732.59
2023-03-13T10:06:37.662Z,98727.13
2023-03-13T10:09:41.972Z,98723.28
2023-03-13T10:12:37.726Z,98723.09
2023-03-13T10:15:51.037Z,98720.22
2023-03-13T10:18:40.708Z,98723.09
2023-03-13T10:21:27.041Z,98720.84
2023-03-13T10:24:45.666Z,98711.47
2023-03-13T10:27:27.930Z,98711.91
2023-03-13T10:30:28.870Z,98701.75
2023-03-13T10:33:16.888Z,98705.41
2023-03-13T10:36:23.673Z,98704.63
2023-03-13T10:39:05.946Z,98701.06
2023-03-13T10:41:56.823Z,98710.50
2023-03-13T10:44:40.963Z,98703.28
2023-03-13T10:47:29.733Z,98698.75
2023-03-13T10:50:13.000Z,98699.69
2023-03-13T10:53:02.632Z,98700.13
2023-03-13T10:55:51.934Z,98700.59
2023-03-13T10:58:50.688Z,98696.56
2023-03-13T11:01:48.958Z,98700.91
2023-03-13T11:04:41.670Z,98692.22
2023-03-13T11:07:29.947Z,98689.00
2023-03-13T11:10:31.699Z,98689.94
2023-03-13T11:13:13.992Z,98680.66
2023-03-13T11:16:21.828Z,98684.13
2023-03-13T11:19:16.283Z,98678.28
2023-03-13T11:22:23.724Z,98678.56
2023-03-13T11:25:28.931Z,98675.16
2023-03-13T11:28:22.677Z,98675.28
2023-03-13T11:31:14.042Z,98672.16
2023-03-13T11:34:23.642Z,98674.09
2023-03-13T11:37:20.428Z,98666.59
2023-03-13T11:40:28.649Z,98672.16
2023-03-13T11:43:27.934Z,98667.84
2023-03-13T11:47:05.712Z,98661.22
2023-03-13T11:50:04.979Z,98662.94
2023-03-13T11:53:11.751Z,98658.94
2023-03-13T11:56:18.391Z,98662.41
2023-03-13T11:59:28.618Z,98662.81
2023-03-13T12:02:26.086Z,98667.09
2023-03-13T12:05:23.080Z,98664.28
2023-03-13T12:08:18.948Z,98665.78
2023-03-13T12:11:39.670Z,98664.50
2023-03-13T12:14:37.928Z,98670.34
2023-03-13T12:17:55.768Z,98675.59
2023-03-13T12:20:54.618Z,98678.56
2023-03-13T12:24:02.825Z,98665.97
2023-03-13T12:27:15.663Z,98672.34
2023-03-13T12:30:25.901Z,98674.97
2023-03-13T12:33:32.711Z,98673.22
2023-03-13T12:36:27.456Z,98667.19
2023-03-13T12:40:02.029Z,98675.13
2023-03-13T12:43:19.987Z,98678.25
2023-03-13T12:46:14.738Z,98681.59
2023-03-13T12:48:59.997Z,98680.38
2023-03-13T12:52:05.805Z,98681.38
2023-03-13T12:54:54.012Z,98686.91
2023-03-13T12:58:15.624Z,98692.84
2023-03-13T13:01:00.060Z,98690.31
2023-03-13T13:03:59.736Z,98696.16
2023-03-13T13:07:09.600Z,98699.66
2023-03-13T13:10:35.323Z,98697.09
2023-03-13T13:13:26.464Z,98699.97
2023-03-13T13:16:25.765Z,98700.19
2023-03-13T13:19:33.452Z,98695.16
2023-03-13T13:22:45.603Z,98694.00
2023-03-13T13:25:37.044Z,98695.66
2023-03-13T13:28:36.717Z,98702.22
2023-03-13T13:32:05.312Z,98699.44
2023-03-13T13:35:06.677Z,98710.25
2023-03-13T13:37:56.920Z,98711.69
2023-03-13T13:40:40.703Z,98717.94
2023-03-13T13:43:25.914Z,98727.09
2023-03-13T13:46:16.688Z,98727.91
2023-03-13T13:49:15.656Z,98724.69
2023-03-13T13:52:21.266Z,98722.19
2023-03-13T13:55:10.647Z,98728.88
2023-03-13T13:57:53.937Z,98727.03
2023-03-13T14:00:53.660Z,98735.19
2023-03-13T14:03:43.185Z,98737.06
2023-03-13T14:06:38.643Z,98742.00
2023-03-13T14:09:49.060Z,98745.16
2023-03-13T14:12:39.814Z,98744.75
2023-03-13T14:15:30.027Z,98750.63
2023-03-13T14:18:24.717Z,98750.25
2023-03-13T14:21:23.601Z,98750.88
2023-03-13T14:24:21.590Z,98758.47
2023-03-13T14:27:03.920Z,98764.50
2023-03-13T14:30:16.721Z,98766.19
2023-03-13T14:33:00.291Z,98769.72
2023-03-13T14:35:50.765Z,98773.84
2023-03-13T14:38:35.082Z,98779.59
2023-03-13T14:41:40.653Z,98791.59
2023-03-13T14:44:36.988Z,98784.91
2023-03-13T14:47:33.701Z,98784.38
2023-03-13T14:50:21.873Z,98795.47
2023-03-13T14:53:19.821Z,98788.22
2023-03-13T14:56:23.244Z,98794.50
2023-03-13T14:59:32.628Z,98792.63
2023-03-13T15:02:24.222Z,98793.41
2023-03-13T15:05:17.680Z,98785.34
2023-03-13T15:08:01.957Z,98798.03
2023-03-13T15:10:51.770Z,98792.09
2023-03-13T15:13:43.974Z,98789.16
2023-03-13T15:16:34.787Z,98788.34
2023-03-13T15:19:29.526Z,98787.84
2023-03-13T15:22:24.012Z,98793.25
2023-03-13T15:25:07.905Z,98793.25
2023-03-13T15:27:57.733Z,98796.25
2023-03-13T15:30:39.919Z,98796.78
2023-03-13T15:33:30.673Z,98801.69
2023-03-13T15:36:13.190Z,98800.06
2023-03-13T15:39:01.691Z,98798.97
2023-03-13T15:41:44.126Z,98793.28
2023-03-13T15:44:32.730Z,98798.75
2023-03-13T15:47:18.940Z,98801.97
2023-03-13T15:50:07.614Z,98805.25
2023-03-13T15:52:49.983Z,98807.97
2023-03-13T15:55:40.599Z,98806.63
2023-03-13T15:58:23.099Z,98809.59
2023-03-13T16:01:11.794Z,98817.44
2023-03-13T16:03:54.271Z,98816.09
2023-03-13T16:06:43.688Z,98810.13
2023-03-13T16:09:26.034Z,98806.34
2023-03-13T16:12:15.605Z,98815.03
2023-03-13T16:15:04.675Z,98804.72
2023-03-13T16:17:59.561Z,98800.41
2023-03-13T16:20:54.741Z,98802.31
2023-03-13T16:23:42.985Z,98803.66
2023-03-13T16:26:32.030Z,98795.56
2023-03-13T16:29:23.107Z,98800.44
2023-03-13T16:32:05.606Z,98801.25
2023-03-13T16:34:54.441Z,98795.59
2023-03-13T16:37:37.653Z,98802.06
2023-03-13T16:40:33.080Z,98789.91
2023-03-13T16:43:14.665Z,98792.31
2023-03-13T16:46:07.424Z,98795.84
2023-03-13T16:48:50.713Z,98794.25
2023-03-13T16:51:39.983Z,98794.75
2023-03-13T16:54:22.690Z,98801.78
2023-03-13T16:57:10.994Z,98799.38
2023-03-13T16:59:53.653Z,98795.28
2023-03-13T17:02:38.522Z,98795.03
2023-03-13T17:05:27.640Z,98798.78
2023-03-13T17:08:19.962Z,98819.56
2023-03-13T17:11:01.616Z,98829.88
2023-03-13T17:13:52.088Z,98826.91
2023-03-13T17:16:40.658Z,98831.22
2023-03-13T17:19:36.485Z,98836.91
2023-03-13T17:22:26.631Z,98823.66
2023-03-13T17:25:09.079Z,98814.19
2023-03-13T17:27:57.619Z,98816.06
2023-03-13T17:30:41.845Z,98820.94
2023-03-13T17:33:30.634Z,98819.06
2023-03-13T17:36:28.149Z,98806.59
2023-03-13T17:39:21.579Z,98809.03
2023-03-13T17:42:06.596Z,98808.22
2023-03-13T17:44:55.917Z,98810.41
2023-03-13T17:47:38.246Z,98798.25
2023-03-13T17:50:30.638Z,98790.66
2023-03-13T17:53:12.939Z,98792.31
2023-03-13T17:56:01.637Z,98793.13
2023-03-13T17:58:45.543Z,98785.84
2023-03-13T18:01:39.639Z,98790.13
2023-03-13T18:04:28.608Z,98794.47
2023-03-13T18:07:53.275Z,98797.19
2023-03-13T18:10:37.870Z,98790.44
2023-03-13T18:13:26.592Z,98787.47
2023-03-13T18:16:08.907Z,98785.59
2023-03-13T18:19:03.619Z,98780.72
2023-03-13T18:22:10.488Z,98779.91
2023-03-13T18:24:59.650Z,98766.66
2023-03-13T18:27:42.306Z,98761.28
2023-03-13T18:30:32.622Z,98772.34
2023-03-13T18:33:17.603Z,98762.88
2023-03-13T18:36:06.603Z,98769.59
2023-03-13T18:38:49.911Z,98770.66
2023-03-13T18:41:38.598Z,98769.84
2023-03-13T18:44:21.977Z,98760.94
2023-03-13T18:47:21.866Z,98764.94
2023-03-13T18:50:04.430Z,98772.47
2023-03-13T18:52:53.677Z,98770.31
2023-03-13T18:55:38.173Z,98756.53
2023-03-13T18:58:26.609Z,98763.00
2023-03-13T19:01:08.995Z,98761.84
2023-03-13T19:03:59.432Z,98771.00
2023-03-13T19:06:44.151Z,98771.53
2023-03-13T19:09:43.261Z,98766.97
2023-03-13T19:12:25.911Z,98773.44
2023-03-13T19:15:14.671Z,98774.25
2023-03-13T19:17:57.217Z,98774.50
2023-03-13T19:20:51.631Z,98772.56
2023-03-13T19:23:33.828Z,98771.44
2023-03-13T19:26:31.677Z,98770.13
2023-03-13T19:29:30.908Z,98775.28
2023-03-13T19:32:14.645Z,98775.69
2023-03-13T19:34:56.795Z,98773.13
2023-03-13T19:37:45.650Z,98778.16
2023-03-13T19:40:34.846Z,98775.88
2023-03-13T19:43:16.612Z,98769.59
2023-03-13T19:46:04.868Z,98773.81
2023-03-13T19:48:47.058Z,98769.25
2023-03-13T19:51:37.890Z,98766.28
2023-03-13T19:54:20.608Z,98765.16
2023-03-13T19:57:02.921Z,98761.38
2023-03-13T19:59:54.325Z,98766.50
2023-03-13T20:02:37.001Z,98763.03
2023-03-13T20:05:25.640Z,98770.25
2023-03-13T20:08:07.624Z,98773.44
2023-03-13T20:10:55.896Z,98774.75
2023-03-13T20:13:38.660Z,98776.00
2023-03-13T20:16:24.630Z,98770.47
2023-03-13T20:19:14.634Z,98772.06
2023-03-13T20:22:03.565Z,98769.63
2023-03-13T20:24:52.618Z,98763.97
2023-03-13T20:27:34.934Z,98763.38
2023-03-13T20:30:24.697Z,98765.72
2023-03-13T20:33:13.047Z,98770.03
2023-03-13T20:35:54.708Z,98765.69
2023-03-13T20:38:43.644Z,98762.91
2023-03-13T20:41:36.813Z,98763.16
2023-03-13T20:44:24.908Z,98764.19
2023-03-13T20:47:07.649Z,98761.47
2023-03-13T20:49:49.772Z,98760.47
2023-03-13T20:52:38.612Z,98759.44
2023-03-13T20:55:27.630Z,98752.84
2023-03-13T20:58:09.888Z,98753.72
2023-03-13T21:00:58.880Z,98757.69
2023-03-13T21:03:40.954Z,98753.56
2023-03-13T21:06:29.618Z,98749.19
2023-03-13T21:09:11.893Z,98748.06
2023-03-13T21:12:00.612Z,98743.72
2023-03-13T21:14:43.536Z,98740.09
2023-03-13T21:17:33.643Z,98741.50
2023-03-13T21:20:29.506Z,98740.38
2023-03-13T21:23:18.638Z,98739.19
2023-03-13T21:26:01.960Z,98731.16
2023-03-13T21:28:50.613Z,98730.03
2023-03-13T21:31:32.952Z,98731.72
2023-03-13T21:34:21.681Z,98729.16
2023-03-13T21:37:03.912Z,98719.63
2023-03-13T21:39:53.609Z,98727.63
2023-03-13T21:42:37.113Z,98728.06
2023-03-13T21:45:25.615Z,98720.78
2023-03-13T21:48:08.949Z,98722.00
2023-03-13T21:51:00.593Z,98717.00
2023-03-13T21:53:45.461Z,98701.88
2023-03-13T21:56:34.683Z,98706.72
2023-03-13T21:59:18.134Z,98723.31
2023-03-13T22:02:06.630Z,98715.66
2023-03-13T22:04:48.945Z,98713.47
2023-03-13T22:07:38.672Z,98712.09
2023-03-13T22:10:27.565Z,98709.13
2023-03-13T22:13:18.570Z,98703.69
2023-03-13T22:16:03.752Z,98699.94
2023-03-13T22:18:52.654Z,98692.56
2023-03-13T22:21:41.671Z,98691.97
2023-03-13T22:24:23.931Z,98693.31
2023-03-13T22:27:12.676Z,98693.31
2023-03-13T22:30:01.652Z,98686.56
2023-03-13T22:32:43.924Z,98693.56
2023-03-13T22:35:32.674Z,98694.84
2023-03-13T22:38:14.889Z,98695.31
2023-03-13T22:41:14.632Z,98700.47
2023-03-13T22:43:56.883Z,98702.78
2023-03-13T22:46:45.660Z,98704.25
2023-03-13T22:49:27.882Z,98703.94
2023-03-13T22:52:16.683Z,98709.84
2023-03-13T22:54:58.991Z,98711.75
2023-03-13T22:57:47.559Z,98713.69
2023-03-13T23:00:29.897Z,98710.66
2023-03-13T23:03:18.764Z,98705.75
2023-03-13T23:06:07.529Z,98702.75
2023-03-13T23:08:57.034Z,98708.50
2023-03-13T23:11:42.042Z,98711.19
2023-03-13T23:14:30.672Z,98706.84
2023-03-13T23:17:12.878Z,98708.72
2023-03-13T23:20:01.575Z,98706.31
2023-03-13T23:22:50.590Z,98707.31
2023-03-13T23:25:38.979Z,98710.59
2023-03-13T23:28:21.673Z,98710.81
2023-03-13T23:31:30.936Z,98711.56
2023-03-13T23:34:13.549Z,98713.38
2023-03-13T23:37:01.932Z,98712.31
2023-03-13T23:39:43.628Z,98718.44
2023-03-13T23:42:32.118Z,98718.44
2023-03-13T23:45:14.585Z,98708.81
2023-03-13T23:48:03.907Z,98710.81
2023-03-13T23:50:46.635Z,98709.47
2023-03-13T23:53:34.912Z,98713.50
2023-03-13T23:56:18.585Z,98715.38
2023-03-13T23:59:07.869Z,98715.91
